Time;durP1;ratioP1;P1;durP2;ratioP2;P2;SDS_P1;SDS_P2;PMS_P1;PMS_P2;Temp;Humidity;BMP_temperature;BMP_pressure;BME280_temperature;BME280_humidity;BME280_pressure;Samples;Min_cycle;Max_cycle;Signal;HPM_P1;HPM_P2
2022/01/31 00:01:43;;;;;;;24.08;3.70;;;1.60;99.90;;;;;;5028658;28;20046;-87
2022/01/31 00:04:09;;;;;;;18.33;3.13;;;1.60;99.90;;;;;;5028803;28;20050;-87
2022/01/31 00:06:36;;;;;;;27.95;4.15;;;1.50;99.90;;;;;;5028703;28;20442;-87
2022/01/31 00:09:03;;;;;;;17.05;4.00;;;1.50;99.90;;;;;;5013345;28;20136;-87
2022/01/31 00:11:31;;;;;;;28.30;4.75;;;1.50;99.90;;;;;;5028948;28;20045;-87
2022/01/31 00:14:02;;;;;;;18.42;3.55;;;1.60;99.90;;;;;;5028975;28;20056;-88
2022/01/31 00:16:32;;;;;;;26.48;4.10;;;1.60;99.90;;;;;;5012484;28;20046;-88
2022/01/31 00:18:59;;;;;;;23.50;4.38;;;1.60;99.90;;;;;;5029028;28;20057;-87
2022/01/31 00:21:28;;;;;;;26.48;4.25;;;1.70;99.90;;;;;;5028780;28;20054;-87
2022/01/31 00:23:55;;;;;;;38.42;4.28;;;1.70;99.90;;;;;;5028856;28;20085;-87
2022/01/31 00:26:22;;;;;;;27.08;4.47;;;1.80;99.90;;;;;;5028381;28;20056;-87
2022/01/31 00:28:48;;;;;;;21.25;4.20;;;1.80;99.90;;;;;;5028697;28;20056;-88
2022/01/31 00:31:15;;;;;;;19.85;4.25;;;1.80;99.90;;;;;;5028750;28;20054;-87
2022/01/31 00:33:42;;;;;;;20.40;4.28;;;1.80;99.90;;;;;;5028571;28;20136;-87
2022/01/31 00:36:09;;;;;;;29.67;4.15;;;1.70;99.90;;;;;;5012084;28;20060;-87
2022/01/31 00:38:36;;;;;;;28.83;4.10;;;1.60;99.90;;;;;;5012852;28;20054;-87
2022/01/31 00:41:04;;;;;;;31.73;4.43;;;1.70;99.90;;;;;;5028509;28;20053;-87
2022/01/31 00:43:34;;;;;;;31.38;4.50;;;1.60;99.90;;;;;;5013016;28;20056;-87
2022/01/31 00:46:09;;;;;;;22.80;4.95;;;1.60;99.90;;;;;;5028403;28;20104;-87
2022/01/31 00:48:41;;;;;;;21.48;4.45;;;1.70;99.90;;;;;;5028427;28;20518;-88
2022/01/31 00:51:09;;;;;;;26.00;4.25;;;1.60;99.90;;;;;;5028191;28;20133;-87
2022/01/31 00:53:37;;;;;;;25.92;4.38;;;1.60;99.90;;;;;;5028225;28;20459;-87
2022/01/31 00:56:04;;;;;;;23.98;3.95;;;1.50;99.90;;;;;;5028491;28;20056;-88
2022/01/31 00:58:30;;;;;;;22.92;3.92;;;1.50;99.90;;;;;;5028711;28;20056;-88
2022/01/31 01:00:57;;;;;;;26.98;4.57;;;1.60;99.90;;;;;;5031476;28;20056;-87
2022/01/31 01:03:24;;;;;;;24.25;4.38;;;1.60;99.90;;;;;;5032256;28;20050;-87
2022/01/31 01:05:52;;;;;;;29.45;4.80;;;1.60;99.90;;;;;;5032109;28;20056;-87
2022/01/31 01:08:20;;;;;;;22.13;4.00;;;1.60;99.90;;;;;;5031714;28;20129;-87
2022/01/31 01:10:46;;;;;;;25.67;4.75;;;1.60;99.90;;;;;;5031968;28;20050;-87
2022/01/31 01:13:13;;;;;;;38.58;5.53;;;1.50;99.90;;;;;;5031997;28;20049;-87
2022/01/31 01:15:40;;;;;;;21.35;4.72;;;1.30;99.90;;;;;;5031583;28;20571;-87
2022/01/31 01:18:07;;;;;;;25.90;4.40;;;1.40;99.90;;;;;;5031687;28;20049;-87
2022/01/31 01:20:34;;;;;;;29.25;4.32;;;1.40;99.90;;;;;;5031766;28;20064;-87
2022/01/31 01:23:01;;;;;;;21.52;3.38;;;1.30;99.90;;;;;;5031765;28;20172;-88
2022/01/31 01:25:28;;;;;;;28.90;4.47;;;1.30;99.90;;;;;;5031865;28;20125;-87
2022/01/31 01:27:55;;;;;;;20.50;4.25;;;1.30;99.90;;;;;;5031926;28;20045;-87
2022/01/31 01:30:21;;;;;;;23.98;3.75;;;1.40;99.90;;;;;;5031829;28;20060;-87
2022/01/31 01:35:29;;;;;;;21.23;4.60;;;1.40;99.90;;;;;;5015877;28;20099;-87
2022/01/31 01:37:56;;;;;;;29.88;4.85;;;1.40;99.90;;;;;;5031695;28;20072;-87
2022/01/31 01:40:23;;;;;;;24.95;4.63;;;1.50;99.90;;;;;;5031394;28;20064;-87
2022/01/31 01:42:49;;;;;;;27.35;5.05;;;1.60;99.90;;;;;;5031707;28;20045;-87
2022/01/31 01:45:16;;;;;;;26.63;4.65;;;1.70;99.90;;;;;;5031256;28;20509;-87
2022/01/31 01:47:43;;;;;;;26.75;5.07;;;1.70;99.90;;;;;;5031328;28;20056;-88
2022/01/31 01:50:10;;;;;;;30.73;5.43;;;1.80;99.90;;;;;;5031121;28;20049;-87
2022/01/31 01:52:37;;;;;;;33.55;5.20;;;1.90;99.90;;;;;;5031073;28;20052;-87
2022/01/31 01:55:06;;;;;;;25.10;4.80;;;1.90;99.90;;;;;;5031315;28;20057;-87
2022/01/31 01:57:32;;;;;;;26.27;5.03;;;2.00;99.90;;;;;;5031265;28;20061;-87
2022/01/31 01:59:59;;;;;;;33.38;5.53;;;2.00;99.90;;;;;;5014725;28;20050;-87
2022/01/31 02:02:26;;;;;;;23.73;5.35;;;2.10;99.90;;;;;;5015598;28;20052;-87
2022/01/31 02:04:53;;;;;;;31.10;4.63;;;2.10;99.90;;;;;;5030799;28;20057;-87
2022/01/31 02:07:20;;;;;;;27.80;4.70;;;2.00;99.90;;;;;;5015570;28;20046;-87
2022/01/31 02:09:54;;;;;;;26.85;4.45;;;2.00;99.90;;;;;;5031039;28;20478;-87
2022/01/31 02:12:21;;;;;;;20.65;4.85;;;2.10;99.90;;;;;;5015417;28;20446;-87
2022/01/31 02:14:47;;;;;;;21.70;4.50;;;2.10;99.90;;;;;;5030611;28;20486;-87
2022/01/31 02:17:14;;;;;;;26.58;5.00;;;2.10;99.90;;;;;;5015225;28;20107;-87
2022/01/31 02:19:41;;;;;;;21.83;4.47;;;2.20;99.90;;;;;;5014211;28;20049;-88
2022/01/31 02:22:08;;;;;;;21.73;4.97;;;2.10;99.90;;;;;;5030886;28;20443;-87
2022/01/31 02:24:34;;;;;;;22.58;4.70;;;2.00;99.90;;;;;;5014932;28;20052;-87
2022/01/31 02:27:03;;;;;;;23.55;4.30;;;1.90;99.90;;;;;;5030670;28;20109;-87
2022/01/31 02:29:30;;;;;;;23.42;5.00;;;1.90;99.90;;;;;;5030296;28;20050;-88
2022/01/31 02:31:57;;;;;;;29.77;6.32;;;1.90;99.90;;;;;;5030727;28;20056;-87
2022/01/31 02:34:24;;;;;;;27.60;4.72;;;1.90;99.90;;;;;;5030109;28;20061;-87
2022/01/31 02:36:51;;;;;;;31.25;5.90;;;2.00;99.90;;;;;;5014095;28;20050;-88
2022/01/31 02:39:18;;;;;;;23.42;4.60;;;2.10;99.90;;;;;;5030212;28;20052;-88
2022/01/31 02:41:46;;;;;;;23.08;4.65;;;2.20;99.90;;;;;;5030035;28;20490;-87
2022/01/31 02:44:16;;;;;;;27.33;4.82;;;2.10;99.90;;;;;;5014810;28;20497;-87
2022/01/31 02:46:51;;;;;;;23.23;4.10;;;2.10;99.90;;;;;;5030043;28;20061;-88
2022/01/31 02:49:22;;;;;;;28.63;4.57;;;2.10;99.90;;;;;;5030021;28;20049;-87
2022/01/31 02:52:02;;;;;;;23.23;4.38;;;2.00;99.90;;;;;;5029944;28;20074;-87
2022/01/31 02:54:32;;;;;;;28.45;4.50;;;1.90;99.90;;;;;;5029888;28;20049;-87
2022/01/31 02:56:59;;;;;;;17.48;4.68;;;1.90;99.90;;;;;;5030127;28;20062;-87
2022/01/31 02:59:25;;;;;;;25.73;4.30;;;1.80;99.90;;;;;;5029582;28;20046;-88
2022/01/31 03:01:52;;;;;;;25.67;4.93;;;1.90;99.90;;;;;;5013714;28;20057;-88
2022/01/31 03:04:19;;;;;;;25.88;4.78;;;1.90;99.90;;;;;;5029784;28;20140;-87
2022/01/31 03:06:49;;;;;;;25.23;5.68;;;2.00;99.90;;;;;;5013448;28;20056;-87
2022/01/31 03:09:17;;;;;;;23.52;4.50;;;2.00;99.90;;;;;;5014580;28;20406;-88
2022/01/31 03:11:45;;;;;;;25.30;5.72;;;2.10;99.90;;;;;;5014308;28;20120;-87
2022/01/31 03:14:15;;;;;;;28.00;5.15;;;2.10;99.90;;;;;;5014196;28;20068;-88
2022/01/31 03:16:44;;;;;;;28.10;4.53;;;2.20;99.90;;;;;;5029531;28;20050;-87
2022/01/31 03:19:12;;;;;;;25.20;4.55;;;2.20;99.90;;;;;;5013397;28;20053;-87
2022/01/31 03:21:39;;;;;;;24.35;4.68;;;2.10;99.90;;;;;;5029167;28;20140;-88
2022/01/31 03:24:06;;;;;;;20.73;4.63;;;2.10;99.90;;;;;;5029241;28;20046;-88
2022/01/31 03:26:33;;;;;;;22.10;4.28;;;2.10;99.90;;;;;;5029631;28;20042;-87
2022/01/31 03:29:00;;;;;;;24.92;4.40;;;2.10;99.90;;;;;;5030003;28;20064;-86
2022/01/31 03:31:27;;;;;;;27.15;5.07;;;2.20;99.90;;;;;;5014061;28;20056;-87
2022/01/31 03:33:54;;;;;;;21.38;4.07;;;2.10;99.90;;;;;;5029381;28;20041;-87
2022/01/31 03:36:21;;;;;;;22.35;4.28;;;2.20;99.90;;;;;;5029417;28;20058;-87
2022/01/31 03:38:49;;;;;;;22.92;4.38;;;2.20;99.90;;;;;;5029573;28;20077;-87
2022/01/31 03:41:18;;;;;;;19.88;4.40;;;2.30;99.90;;;;;;5014206;28;20140;-87
2022/01/31 03:43:46;;;;;;;25.60;4.55;;;2.30;99.90;;;;;;5029568;28;20129;-88
2022/01/31 03:46:13;;;;;;;23.90;4.22;;;2.30;99.90;;;;;;5029645;28;20054;-88
2022/01/31 03:48:41;;;;;;;28.42;4.50;;;2.40;99.90;;;;;;5028954;28;20478;-87
2022/01/31 03:51:08;;;;;;;21.88;4.10;;;2.40;99.90;;;;;;5029431;28;20152;-90
2022/01/31 03:53:35;;;;;;;27.52;4.80;;;2.50;99.90;;;;;;5028884;28;20509;-87
2022/01/31 03:56:01;;;;;;;20.23;3.08;;;2.50;99.90;;;;;;5029170;28;20146;-88
2022/01/31 03:58:28;;;;;;;23.40;4.30;;;2.50;99.90;;;;;;5013543;28;20077;-89
2022/01/31 04:00:55;;;;;;;28.60;5.07;;;2.50;99.90;;;;;;5029092;28;20399;-87
2022/01/31 04:03:22;;;;;;;22.65;4.18;;;2.60;99.90;;;;;;5028885;28;20514;-85
2022/01/31 04:05:49;;;;;;;21.30;4.05;;;2.60;99.90;;;;;;5029246;28;20439;-87
2022/01/31 04:08:16;;;;;;;21.38;3.20;;;2.60;99.90;;;;;;5029097;28;20049;-87
2022/01/31 04:10:43;;;;;;;25.40;3.67;;;2.60;99.90;;;;;;5028879;28;20129;-88
2022/01/31 04:13:09;;;;;;;22.63;3.53;;;2.60;99.90;;;;;;5029446;28;20056;-88
2022/01/31 04:15:39;;;;;;;16.10;3.65;;;2.60;99.90;;;;;;5028665;28;20056;-87
2022/01/31 04:18:06;;;;;;;25.77;4.47;;;2.70;99.90;;;;;;5013695;28;20068;-87
2022/01/31 04:20:33;;;;;;;19.52;4.90;;;2.60;99.90;;;;;;5012364;28;20060;-88
2022/01/31 04:23:08;;;;;;;20.98;4.97;;;2.60;99.90;;;;;;5029068;28;20050;-89
2022/01/31 04:28:32;;;;;;;14.05;3.55;;;2.60;99.90;;;;;;5013525;28;20586;-88
2022/01/31 04:33:45;;;;;;;18.55;3.35;;;2.60;99.90;;;;;;5013583;28;20111;-87
2022/01/31 04:36:15;;;;;;;22.05;4.05;;;2.60;99.90;;;;;;5033326;28;20050;-88
2022/01/31 04:38:44;;;;;;;25.17;4.00;;;2.60;99.90;;;;;;5032890;28;20085;-87
2022/01/31 04:41:12;;;;;;;16.83;3.95;;;2.60;99.90;;;;;;5033324;28;20553;-87
2022/01/31 04:43:39;;;;;;;21.48;3.63;;;2.60;99.90;;;;;;5032834;28;20052;-87
2022/01/31 04:46:09;;;;;;;20.92;3.55;;;2.50;99.90;;;;;;5032590;28;20053;-87
2022/01/31 04:48:36;;;;;;;24.05;4.60;;;2.50;99.90;;;;;;5032690;28;20072;-89
2022/01/31 04:51:03;;;;;;;25.08;4.68;;;2.50;99.90;;;;;;5032624;28;20064;-87
2022/01/31 04:53:29;;;;;;;18.02;3.72;;;2.50;99.90;;;;;;5032374;28;20052;-87
2022/01/31 04:55:56;;;;;;;15.43;3.75;;;2.50;99.90;;;;;;5016317;28;20133;-87
2022/01/31 04:58:23;;;;;;;26.88;3.85;;;2.50;99.90;;;;;;5017135;28;20046;-90
2022/01/31 05:00:50;;;;;;;18.90;3.67;;;2.50;99.90;;;;;;5032688;28;20064;-87
2022/01/31 05:03:19;;;;;;;17.73;3.42;;;2.50;99.90;;;;;;5016031;28;20046;-88
2022/01/31 05:05:47;;;;;;;12.25;2.97;;;2.50;99.90;;;;;;5031871;28;20528;-87
2022/01/31 05:08:14;;;;;;;25.55;3.92;;;2.40;99.90;;;;;;5032439;28;20050;-86
2022/01/31 05:10:47;;;;;;;19.15;3.55;;;2.50;99.90;;;;;;5032315;28;20050;-88
2022/01/31 05:13:16;;;;;;;14.98;3.80;;;2.50;99.90;;;;;;5015812;28;20056;-88
2022/01/31 05:15:44;;;;;;;22.40;3.35;;;2.50;99.90;;;;;;5032026;28;20482;-88
2022/01/31 05:18:11;;;;;;;15.35;3.90;;;2.50;99.90;;;;;;5032050;28;20077;-88
2022/01/31 05:20:38;;;;;;;18.58;3.90;;;2.50;99.90;;;;;;5031996;28;20054;-88
2022/01/31 05:23:06;;;;;;;22.42;3.60;;;2.40;99.90;;;;;;5032249;28;20061;-87
2022/01/31 05:25:34;;;;;;;18.38;3.17;;;2.40;99.90;;;;;;5031769;28;20534;-87
2022/01/31 05:28:01;;;;;;;23.30;3.60;;;2.40;99.90;;;;;;5016673;28;20137;-87
2022/01/31 05:30:29;;;;;;;27.00;5.07;;;2.40;99.90;;;;;;5031559;28;20050;-87
2022/01/31 05:32:56;;;;;;;19.35;3.67;;;2.40;99.90;;;;;;5031640;28;20049;-87
2022/01/31 05:35:22;;;;;;;25.35;4.93;;;2.40;99.90;;;;;;5031377;28;20144;-87
2022/01/31 05:37:49;;;;;;;23.50;3.97;;;2.40;99.90;;;;;;5031959;28;20570;-87
2022/01/31 05:40:16;;;;;;;16.52;3.10;;;2.40;99.90;;;;;;5030969;28;20064;-87
2022/01/31 05:42:43;;;;;;;14.10;3.30;;;2.40;99.90;;;;;;5016169;28;20050;-87
2022/01/31 05:45:09;;;;;;;18.10;3.70;;;2.40;99.90;;;;;;5015330;28;20081;-87
2022/01/31 05:47:37;;;;;;;23.80;4.32;;;2.40;99.90;;;;;;5031062;28;20067;-87
2022/01/31 05:50:04;;;;;;;18.15;4.05;;;2.40;99.90;;;;;;5031243;28;20084;-87
2022/01/31 05:52:31;;;;;;;20.52;4.05;;;2.40;99.90;;;;;;5014449;28;20056;-89
2022/01/31 05:54:59;;;;;;;20.63;4.00;;;2.40;99.90;;;;;;5031111;28;20050;-87
2022/01/31 05:57:26;;;;;;;27.20;4.18;;;2.50;99.90;;;;;;5015592;28;20061;-89
2022/01/31 05:59:53;;;;;;;22.17;4.43;;;2.50;99.90;;;;;;5031024;28;20053;-87
2022/01/31 06:02:19;;;;;;;21.17;3.58;;;2.50;99.90;;;;;;5016111;28;20053;-88
2022/01/31 06:04:47;;;;;;;22.33;4.22;;;2.50;99.90;;;;;;5030506;28;20487;-87
2022/01/31 06:07:14;;;;;;;19.00;3.92;;;2.50;99.90;;;;;;5014756;28;20046;-87
2022/01/31 06:09:41;;;;;;;15.02;3.47;;;2.50;99.90;;;;;;5031352;28;20439;-88
2022/01/31 06:12:11;;;;;;;14.30;3.15;;;2.40;99.90;;;;;;5031492;28;20046;-87
2022/01/31 06:14:39;;;;;;;21.70;4.38;;;2.50;99.90;;;;;;5017692;28;20508;-87
2022/01/31 06:17:06;;;;;;;19.02;4.13;;;2.50;99.90;;;;;;5033943;28;20050;-88
2022/01/31 06:19:32;;;;;;;25.17;5.18;;;2.50;99.90;;;;;;5016967;28;20056;-85
2022/01/31 06:21:59;;;;;;;18.63;4.15;;;2.50;99.90;;;;;;5030843;28;20054;-90
2022/01/31 06:24:26;;;;;;;22.67;4.03;;;2.50;99.90;;;;;;5030679;28;20124;-89
2022/01/31 06:26:53;;;;;;;14.15;3.47;;;2.50;99.90;;;;;;5030745;28;20140;-87
2022/01/31 06:29:20;;;;;;;20.85;4.55;;;2.50;99.90;;;;;;5030729;28;20050;-90
2022/01/31 06:31:47;;;;;;;18.58;3.42;;;2.40;99.90;;;;;;5030845;28;20064;-87
2022/01/31 06:34:14;;;;;;;15.40;3.42;;;2.30;99.90;;;;;;5030483;28;20474;-87
2022/01/31 06:36:41;;;;;;;9.63;3.58;;;2.20;99.90;;;;;;5014882;28;20056;-89
2022/01/31 06:39:08;;;;;;;17.65;4.10;;;2.20;99.90;;;;;;5030299;28;20056;-88
2022/01/31 06:41:35;;;;;;;13.52;3.72;;;2.20;99.90;;;;;;5030592;28;20066;-88
2022/01/31 06:44:02;;;;;;;10.80;3.92;;;2.10;99.90;;;;;;5030763;28;20050;-87
2022/01/31 06:46:29;;;;;;;15.70;4.38;;;2.10;99.90;;;;;;5030274;28;20077;-88
2022/01/31 06:48:56;;;;;;;15.63;3.67;;;2.00;99.90;;;;;;5015197;28;20418;-87
2022/01/31 06:51:23;;;;;;;8.88;3.08;;;2.00;99.90;;;;;;5015524;28;20473;-89
2022/01/31 06:53:55;;;;;;;14.15;3.63;;;1.90;99.90;;;;;;5029465;28;20141;-87
2022/01/31 06:56:29;;;;;;;13.15;3.88;;;1.90;99.90;;;;;;5029920;28;20140;-89
2022/01/31 06:58:56;;;;;;;;;;;1.90;99.90;;;;;;5013653;28;20050;-86
2022/01/31 07:01:25;;;;;;;8.73;2.63;;;1.90;99.90;;;;;;5014716;28;19976;-87
2022/01/31 07:03:54;;;;;;;12.50;3.28;;;1.90;99.90;;;;;;5029702;28;20061;-88
2022/01/31 07:06:24;;;;;;;7.35;2.40;;;1.90;99.90;;;;;;5029713;28;20057;-87
2022/01/31 07:08:52;;;;;;;12.00;3.35;;;1.90;99.90;;;;;;5029842;28;20057;-88
2022/01/31 07:11:23;;;;;;;6.60;2.65;;;1.90;99.90;;;;;;5014333;28;20084;-87
2022/01/31 07:14:01;;;;;;;4.45;2.38;;;2.00;99.90;;;;;;5014416;28;20068;-88
2022/01/31 07:16:28;;;;;;;5.50;2.03;;;1.90;99.90;;;;;;5029599;28;20046;-88
2022/01/31 07:19:04;;;;;;;6.13;2.30;;;2.00;99.90;;;;;;5013097;28;20129;-88
2022/01/31 07:21:46;;;;;;;3.90;2.45;;;1.90;99.90;;;;;;5029569;28;20105;-88
2022/01/31 07:24:26;;;;;;;4.50;1.80;;;1.90;99.90;;;;;;5029665;28;20057;-88
2022/01/31 07:26:53;;;;;;;6.70;1.90;;;1.90;99.90;;;;;;5014165;28;20076;-87
2022/01/31 07:29:21;;;;;;;1.88;1.70;;;1.90;99.90;;;;;;5029282;28;20042;-87
2022/01/31 07:31:49;;;;;;;2.38;1.60;;;1.80;99.90;;;;;;5013944;28;20578;-87
2022/01/31 07:34:20;;;;;;;1.83;1.40;;;1.80;99.90;;;;;;5029363;28;20048;-88
2022/01/31 07:36:47;;;;;;;4.28;2.30;;;1.70;99.90;;;;;;5029458;28;20132;-88
2022/01/31 07:39:16;;;;;;;2.38;1.38;;;1.70;99.90;;;;;;5029015;28;20061;-87
2022/01/31 07:41:43;;;;;;;2.22;2.00;;;1.70;99.90;;;;;;5029172;28;20060;-89
2022/01/31 07:44:10;;;;;;;3.00;1.30;;;1.60;99.90;;;;;;5028897;28;20410;-88
2022/01/31 07:46:38;;;;;;;2.38;1.92;;;1.70;99.90;;;;;;5014096;28;20058;-88
2022/01/31 07:49:06;;;;;;;2.50;1.30;;;1.70;99.90;;;;;;5029489;28;20336;-89
2022/01/31 07:51:37;;;;;;;1.05;0.90;;;1.80;99.90;;;;;;5028716;28;20415;-88
2022/01/31 07:54:05;;;;;;;1.65;1.17;;;1.80;99.90;;;;;;5028013;28;20482;-88
2022/01/31 07:56:32;;;;;;;0.98;0.98;;;1.80;99.90;;;;;;5013364;28;20056;-88
2022/01/31 07:58:58;;;;;;;1.45;1.25;;;1.80;99.90;;;;;;5014206;28;20049;-88
2022/01/31 08:01:28;;;;;;;1.13;1.08;;;1.80;99.90;;;;;;5028805;28;20053;-89
2022/01/31 08:03:55;;;;;;;1.02;0.90;;;1.80;99.90;;;;;;5028996;28;20046;-88
2022/01/31 08:06:22;;;;;;;1.13;1.00;;;1.90;99.90;;;;;;5013663;28;20141;-88
2022/01/31 08:08:50;;;;;;;1.38;1.08;;;1.90;99.90;;;;;;5028805;28;20052;-88
2022/01/31 08:11:17;;;;;;;0.60;0.60;;;1.90;99.90;;;;;;5013402;28;20056;-89
2022/01/31 08:13:44;;;;;;;0.77;0.77;;;2.00;99.90;;;;;;5029610;28;20053;-92
2022/01/31 08:16:13;;;;;;;0.55;0.55;;;2.10;99.90;;;;;;5029173;28;20058;-89
2022/01/31 08:18:42;;;;;;;1.13;1.10;;;2.10;99.90;;;;;;5028836;28;20136;-90
2022/01/31 08:21:10;;;;;;;0.70;0.70;;;2.10;99.90;;;;;;5029094;28;20130;-89
2022/01/31 08:23:37;;;;;;;0.50;0.50;;;2.10;99.90;;;;;;5028895;28;20141;-91
2022/01/31 08:26:07;;;;;;;0.50;0.50;;;2.20;99.90;;;;;;5028986;28;20053;-90
2022/01/31 08:28:43;;;;;;;0.52;0.52;;;2.20;99.90;;;;;;5029028;28;20141;-90
2022/01/31 08:31:17;;;;;;;0.50;0.50;;;2.20;99.90;;;;;;5029239;28;20045;-90
2022/01/31 08:33:50;;;;;;;0.60;0.60;;;2.30;99.90;;;;;;5030247;28;20058;-90
2022/01/31 08:36:17;;;;;;;0.40;0.40;;;2.30;99.90;;;;;;5030563;28;20423;-90
2022/01/31 08:38:45;;;;;;;1.17;0.70;;;2.30;99.90;;;;;;5029035;28;20136;-89
2022/01/31 08:41:13;;;;;;;11.10;2.17;;;2.40;99.90;;;;;;5029130;28;20538;-90
2022/01/31 08:43:40;;;;;;;0.32;0.32;;;2.40;99.90;;;;;;5012876;28;20317;-90
2022/01/31 08:46:11;;;;;;;0.28;0.28;;;2.50;99.90;;;;;;5028724;28;20061;-89
2022/01/31 08:48:38;;;;;;;0.45;0.40;;;2.50;99.90;;;;;;5028763;28;20069;-89
2022/01/31 08:51:07;;;;;;;0.45;0.45;;;2.60;99.90;;;;;;5028780;28;20056;-89
2022/01/31 08:53:34;;;;;;;0.52;0.52;;;2.60;99.90;;;;;;5028483;28;20149;-90
2022/01/31 08:56:09;;;;;;;2.35;0.75;;;2.70;99.90;;;;;;5028235;28;20487;-90
2022/01/31 08:58:43;;;;;;;0.40;0.40;;;2.70;99.90;;;;;;5028948;28;20054;-89
2022/01/31 09:01:12;;;;;;;0.30;0.30;;;2.70;99.90;;;;;;5028324;28;20140;-90
2022/01/31 09:06:07;;;;;;;0.52;0.40;;;2.80;99.90;;;;;;5013326;28;20106;-89
2022/01/31 09:08:35;;;;;;;0.40;0.20;;;2.80;99.90;;;;;;5028579;28;20453;-89
2022/01/31 09:11:03;;;;;;;1.55;0.30;;;2.80;99.90;;;;;;5029025;28;20052;-89
2022/01/31 09:13:30;;;;;;;1.65;0.20;;;2.90;99.90;;;;;;5028835;28;20553;-90
2022/01/31 09:15:57;;;;;;;1.42;0.30;;;2.90;99.90;;;;;;5028426;28;20060;-90
2022/01/31 09:18:24;;;;;;;0.30;0.30;;;2.90;99.90;;;;;;5028356;28;20053;-90
2022/01/31 09:20:51;;;;;;;0.28;0.28;;;2.90;99.90;;;;;;5029553;28;20060;-90
2022/01/31 09:23:17;;;;;;;0.20;0.20;;;3.00;99.90;;;;;;5032074;28;20081;-89
2022/01/31 09:25:46;;;;;;;0.30;0.30;;;3.10;99.90;;;;;;5032003;28;20145;-89
2022/01/31 09:28:14;;;;;;;0.30;0.30;;;3.20;99.90;;;;;;5032046;28;20049;-88
2022/01/31 09:30:43;;;;;;;1.00;0.30;;;3.30;99.90;;;;;;5032008;28;20058;-90
2022/01/31 09:33:10;;;;;;;0.30;0.30;;;3.30;99.90;;;;;;5032168;28;20096;-90
2022/01/31 09:35:37;;;;;;;1.00;0.43;;;3.30;99.90;;;;;;5031626;28;20072;-89
2022/01/31 09:38:05;;;;;;;0.47;0.45;;;3.30;99.90;;;;;;5031713;28;20124;-90
2022/01/31 09:40:32;;;;;;;0.40;0.40;;;3.40;99.90;;;;;;5031628;28;20570;-90
2022/01/31 09:43:10;;;;;;;0.85;0.60;;;3.50;99.90;;;;;;5031467;28;20070;-89
2022/01/31 09:51:12;;;;;;;0.90;0.90;;;3.90;99.90;;;;;;5016262;28;20054;-91
2022/01/31 09:53:40;;;;;;;2.75;0.93;;;4.10;99.90;;;;;;5031636;28;20083;-88
2022/01/31 09:56:09;;;;;;;1.98;0.60;;;4.20;99.90;;;;;;5031709;28;20418;-88
2022/01/31 09:58:38;;;;;;;2.97;0.55;;;4.30;99.90;;;;;;5031453;28;20061;-88
2022/01/31 10:01:10;;;;;;;1.48;1.05;;;4.40;99.90;;;;;;5031463;28;20052;-88
2022/01/31 10:04:10;;;;;;;1.77;0.90;;;4.40;99.90;;;;;;5031237;28;20046;-88
2022/01/31 10:06:39;;;;;;;3.35;0.93;;;4.40;99.90;;;;;;5007552;28;20046;-89
2022/01/31 10:09:17;;;;;;;1.33;0.75;;;4.50;99.90;;;;;;5031464;28;20056;-88
2022/01/31 10:12:31;;;;;;;1.60;0.80;;;4.60;99.90;;;;;;5031468;28;20058;-88
2022/01/31 10:17:45;;;;;;;3.95;1.00;;;4.90;99.90;;;;;;5015681;28;20422;-89
2022/01/31 10:20:18;;;;;;;3.53;0.80;;;4.90;99.90;;;;;;5030921;28;20144;-88
2022/01/31 10:22:46;;;;;;;4.65;0.80;;;4.90;99.90;;;;;;5030922;28;20119;-88
2022/01/31 10:25:16;;;;;;;0.70;0.70;;;5.00;99.90;;;;;;5014595;28;20112;-88
2022/01/31 10:28:11;;;;;;;1.70;0.85;;;5.10;99.90;;;;;;5028462;28;20487;-88
2022/01/31 10:30:38;;;;;;;7.13;1.00;;;5.10;99.90;;;;;;5030962;28;20380;-88
2022/01/31 10:33:07;;;;;;;2.08;0.90;;;5.10;99.90;;;;;;5029590;28;20473;-89
2022/01/31 10:35:35;;;;;;;1.38;0.70;;;5.00;99.90;;;;;;5030868;28;20061;-88
2022/01/31 10:38:09;;;;;;;2.67;0.77;;;4.90;99.90;;;;;;5030754;28;20058;-87
2022/01/31 10:44:20;;;;;;;3.47;0.88;;;5.10;99.90;;;;;;5014473;28;20063;-89
2022/01/31 10:52:06;;;;;;;1.25;0.88;;;5.60;99.90;;;;;;5014829;28;20149;-88
2022/01/31 10:57:07;;;;;;;2.28;0.88;;;5.60;99.90;;;;;;5015082;28;20073;-88
2022/01/31 10:59:43;;;;;;;2.03;0.95;;;5.80;99.90;;;;;;5030036;28;20111;-88
2022/01/31 11:02:19;;;;;;;2.07;0.53;;;5.90;99.90;;;;;;5030387;28;20682;-88
2022/01/31 11:04:48;;;;;;;1.67;0.63;;;5.90;99.90;;;;;;5030594;28;20511;-89
2022/01/31 11:07:21;;;;;;;0.50;0.50;;;5.60;99.90;;;;;;5029202;28;20070;-88
2022/01/31 11:09:52;;;;;;;1.20;0.63;;;5.60;99.90;;;;;;5029952;28;20058;-90
2022/01/31 11:12:22;;;;;;;1.55;0.75;;;5.60;99.90;;;;;;5029556;28;20050;-88
2022/01/31 11:14:50;;;;;;;1.58;0.50;;;5.60;99.90;;;;;;5029716;28;20054;-88
2022/01/31 11:17:18;;;;;;;0.47;0.40;;;5.40;99.90;;;;;;5029547;28;20057;-89
2022/01/31 11:19:49;;;;;;;1.60;0.70;;;5.30;99.90;;;;;;5029572;28;20065;-88
2022/01/31 11:22:26;;;;;;;2.75;0.70;;;5.00;99.90;;;;;;5029133;28;20494;-88
2022/01/31 11:25:13;;;;;;;0.57;0.45;;;4.80;99.90;;;;;;5026962;28;20085;-88
2022/01/31 11:27:45;;;;;;;0.68;0.30;;;4.50;99.90;;;;;;5028946;28;20056;-88
2022/01/31 11:30:12;;;;;;;0.93;0.70;;;4.30;99.90;;;;;;5029647;28;20045;-89
2022/01/31 11:32:41;;;;;;;0.57;0.57;;;4.10;99.90;;;;;;5029131;28;20136;-89
2022/01/31 11:35:08;;;;;;;2.13;0.70;;;4.00;99.90;;;;;;5029063;28;20072;-90
2022/01/31 11:37:36;;;;;;;0.95;0.60;;;4.00;99.90;;;;;;5029169;28;20053;-89
2022/01/31 11:40:09;;;;;;;0.85;0.75;;;3.90;99.90;;;;;;5028796;28;20058;-92
2022/01/31 11:42:40;;;;;;;2.17;1.10;;;3.90;99.90;;;;;;5028974;28;20140;-92
2022/01/31 11:45:18;;;;;;;0.50;0.50;;;3.90;99.90;;;;;;5028859;28;20153;-92
2022/01/31 11:47:49;;;;;;;1.13;0.70;;;3.90;99.90;;;;;;5028846;28;20054;-92
2022/01/31 11:50:18;;;;;;;0.30;0.28;;;3.90;99.90;;;;;;5028786;28;20092;-92
2022/01/31 11:52:48;;;;;;;1.48;0.30;;;4.00;99.90;;;;;;5028766;28;20058;-93
2022/01/31 11:55:18;;;;;;;0.35;0.30;;;4.00;99.90;;;;;;5028676;28;20077;-91
2022/01/31 11:57:48;;;;;;;0.30;0.30;;;4.00;99.90;;;;;;5030638;28;20076;-93
2022/01/31 12:00:17;;;;;;;0.50;0.30;;;4.00;99.90;;;;;;5029205;28;20413;-94
2022/01/31 12:02:47;;;;;;;0.30;0.30;;;4.00;99.90;;;;;;5029468;28;20057;-91
2022/01/31 12:05:21;;;;;;;0.30;0.30;;;4.00;99.90;;;;;;5028624;28;20388;-90
2022/01/31 12:08:01;;;;;;;0.28;0.28;;;4.00;99.90;;;;;;5028573;28;20119;-93
2022/01/31 12:10:34;;;;;;;0.47;0.22;;;4.20;99.90;;;;;;5028904;28;20133;-91
2022/01/31 12:13:15;;;;;;;0.70;0.30;;;4.20;99.90;;;;;;5028430;28;20379;-91
2022/01/31 12:15:59;;;;;;;0.10;0.10;;;4.30;99.90;;;;;;5029085;28;20084;-89
2022/01/31 12:23:58;;;;;;;0.20;0.20;;;4.30;99.90;;;;;;5012820;28;20156;-92
2022/01/31 12:26:31;;;;;;;1.48;0.20;;;4.30;99.90;;;;;;5028692;28;20080;-92
2022/01/31 12:29:05;;;;;;;0.10;0.10;;;4.30;99.90;;;;;;5028419;28;20111;-92
2022/01/31 12:31:34;;;;;;;0.43;0.40;;;4.20;99.90;;;;;;5028348;28;20052;-92
2022/01/31 12:34:08;;;;;;;1.02;0.30;;;4.10;99.90;;;;;;5028180;28;20050;-91
2022/01/31 12:36:34;;;;;;;2.40;0.30;;;4.20;99.90;;;;;;5028385;28;20046;-92
2022/01/31 12:39:03;;;;;;;0.30;0.28;;;4.30;99.90;;;;;;5028452;28;20058;-93
2022/01/31 12:41:32;;;;;;;0.20;0.20;;;4.30;99.90;;;;;;5028578;28;20053;-90
2022/01/31 12:44:42;;;;;;;0.20;0.20;;;4.30;99.90;;;;;;5028352;28;20137;-90
2022/01/31 12:47:15;;;;;;;0.00;0.00;;;4.40;99.90;;;;;;5007418;28;20064;-92
2022/01/31 12:49:43;;;;;;;0.10;0.10;;;4.40;99.90;;;;;;5028639;28;20050;-93
2022/01/31 12:52:11;;;;;;;0.17;0.10;;;4.40;99.90;;;;;;5028286;28;20056;-90
2022/01/31 12:54:40;;;;;;;0.10;0.10;;;4.50;99.90;;;;;;5028438;28;20049;-92
2022/01/31 12:57:10;;;;;;;0.73;0.20;;;4.50;99.90;;;;;;5031866;28;20046;-90
2022/01/31 12:59:39;;;;;;;0.08;0.08;;;4.40;99.90;;;;;;5032116;28;20054;-92
2022/01/31 13:02:09;;;;;;;3.97;0.52;;;4.40;99.90;;;;;;5032206;28;20050;-93
2022/01/31 13:04:38;;;;;;;0.75;0.10;;;4.40;99.90;;;;;;5032469;28;20046;-92
2022/01/31 13:07:08;;;;;;;0.22;0.22;;;4.40;99.90;;;;;;5032120;28;20046;-92
2022/01/31 13:09:54;;;;;;;0.00;0.00;;;4.40;99.90;;;;;;5029256;28;20054;-88
2022/01/31 13:12:24;;;;;;;0.15;0.10;;;4.40;99.90;;;;;;5031818;28;20058;-89
2022/01/31 13:14:52;;;;;;;0.13;0.10;;;4.50;99.90;;;;;;5031802;28;20438;-91
2022/01/31 13:17:23;;;;;;;0.25;0.20;;;4.50;99.90;;;;;;5015225;28;20137;-90
2022/01/31 13:19:59;;;;;;;0.10;0.10;;;4.50;99.90;;;;;;5031709;28;20137;-92
2022/01/31 13:22:38;;;;;;;0.10;0.10;;;4.50;99.90;;;;;;5031642;28;20100;-92
2022/01/31 13:25:06;;;;;;;0.63;0.40;;;4.60;99.90;;;;;;5031953;28;20661;-89
2022/01/31 13:27:54;;;;;;;0.52;0.10;;;4.60;99.90;;;;;;5029351;28;20123;-92
2022/01/31 13:30:23;;;;;;;0.20;0.20;;;4.70;99.90;;;;;;5031710;28;20101;-92
2022/01/31 13:32:51;;;;;;;0.45;0.10;;;4.70;99.90;;;;;;5031760;28;20060;-92
2022/01/31 13:35:21;;;;;;;0.10;0.00;;;4.80;99.90;;;;;;5031041;28;20056;-90
2022/01/31 13:37:53;;;;;;;0.00;0.00;;;4.80;99.90;;;;;;5031760;28;20074;-90
2022/01/31 13:40:36;;;;;;;0.10;0.10;;;4.80;99.90;;;;;;5030892;28;20145;-89